Time;durP1;ratioP1;P1;durP2;ratioP2;P2;SDS_P1;SDS_P2;PMS_P1;PMS_P2;Temp;Humidity;BMP_temperature;BMP_pressure;BME280_temperature;BME280_humidity;BME280_pressure;Samples;Min_cycle;Max_cycle;Signal;HPM_P1;HPM_P2
2022/09/06 00:02:21;;;;;;;10.80;5.65;;;;;;;18.04;97.15;98579.69;5083625;28;20024;-68
2022/09/06 00:04:47;;;;;;;20.13;4.65;;;;;;;18.93;91.25;98582.09;5083689;28;20190;-68
2022/09/06 00:07:13;;;;;;;8.68;4.32;;;;;;;19.60;86.79;98600.63;5084031;28;20032;-68
2022/09/06 00:09:38;;;;;;;12.10;4.28;;;;;;;20.13;82.88;98619.00;5083857;28;20092;-68
2022/09/06 00:12:04;;;;;;;17.10;4.20;;;;;;;20.29;82.25;98626.03;5083956;28;20033;-68
2022/09/06 00:14:29;;;;;;;8.98;4.15;;;;;;;20.47;81.49;98627.59;5083967;28;20331;-68
2022/09/06 00:16:54;;;;;;;20.27;4.85;;;;;;;20.49;84.05;98627.50;5083980;28;20126;-68
2022/09/06 00:19:20;;;;;;;27.27;5.55;;;;;;;20.06;88.16;98599.72;5083598;28;20066;-68
2022/09/06 03:36:07;;;;;;;18.40;9.93;;;;;;;15.66;100.00;98553.38;5061772;28;20380;-68
2022/09/06 03:38:33;;;;;;;25.58;10.27;;;;;;;15.58;100.00;98549.28;5061358;28;20032;-69
2022/09/06 03:43:51;;;;;;;17.58;8.63;;;;;;;15.61;100.00;98547.41;5177901;27;20339;-69
2022/09/06 03:46:17;;;;;;;10.85;7.35;;;;;;;15.46;100.00;98545.34;5162998;27;20019;-69
2022/09/06 03:48:42;;;;;;;18.55;8.30;;;;;;;15.42;100.00;98535.81;5162924;27;20041;-69
2022/09/06 03:51:07;;;;;;;23.88;9.10;;;;;;;15.35;100.00;98536.94;5162543;27;20030;-69
2022/09/06 03:53:33;;;;;;;70.20;9.00;;;;;;;15.33;100.00;98537.91;5162942;27;20015;-69
2022/09/06 03:55:58;;;;;;;13.00;8.65;;;;;;;15.30;100.00;98533.59;5162774;27;20387;-69
2022/09/06 03:58:28;;;;;;;20.95;8.18;;;;;;;15.20;100.00;98532.25;5162596;27;20203;-69
2022/09/06 04:01:05;;;;;;;17.73;8.55;;;;;;;15.16;100.00;98541.25;5151700;27;20307;-69
2022/09/06 04:03:32;;;;;;;13.35;8.13;;;;;;;15.21;100.00;98541.91;5143242;27;20082;-69
2022/09/06 04:05:57;;;;;;;21.75;7.70;;;;;;;15.17;100.00;98545.63;5143332;27;20031;-69
2022/09/06 04:08:22;;;;;;;15.55;7.93;;;;;;;15.20;100.00;98542.84;5143566;27;20018;-69
2022/09/06 04:10:51;;;;;;;15.90;7.28;;;;;;;15.19;100.00;98551.72;5142038;28;20064;-69
2022/09/06 04:13:17;;;;;;;54.28;7.85;;;;;;;15.18;100.00;98544.69;5141995;28;20026;-69
2022/09/06 04:15:45;;;;;;;26.95;6.85;;;;;;;15.10;100.00;98546.78;5142027;28;20019;-69
2022/09/06 04:18:10;;;;;;;24.75;7.78;;;;;;;15.11;100.00;98543.19;5141871;28;20072;-69
2022/09/06 04:20:36;;;;;;;12.88;6.32;;;;;;;15.02;100.00;98540.91;5141855;28;20023;-69
2022/09/06 04:23:01;;;;;;;14.40;6.88;;;;;;;15.05;100.00;98533.69;5142032;28;20023;-69
2022/09/06 04:25:26;;;;;;;19.17;7.15;;;;;;;15.04;100.00;98537.25;5141809;28;20027;-69
2022/09/06 04:27:52;;;;;;;11.95;6.78;;;;;;;15.01;100.00;98533.88;5141743;28;20026;-69
2022/09/06 04:30:17;;;;;;;10.05;7.00;;;;;;;15.00;100.00;98530.34;5141741;28;20030;-69
2022/09/06 04:32:42;;;;;;;11.30;7.40;;;;;;;14.92;100.00;98526.28;5141635;28;20019;-69
2022/09/06 04:35:08;;;;;;;12.32;8.38;;;;;;;14.90;100.00;98533.41;5141571;28;20023;-69
2022/09/06 04:37:33;;;;;;;15.68;8.32;;;;;;;14.83;100.00;98539.88;5123218;28;20043;-69
2022/09/06 04:39:58;;;;;;;11.50;7.40;;;;;;;14.80;100.00;98532.91;5141524;28;20019;-69
2022/09/06 04:42:24;;;;;;;143.30;10.13;;;;;;;14.77;100.00;98532.16;5141179;28;20039;-69
2022/09/06 04:44:49;;;;;;;44.42;8.63;;;;;;;14.77;100.00;98529.50;5141437;28;20024;-69
2022/09/06 04:47:17;;;;;;;71.60;7.80;;;;;;;14.58;100.00;98541.69;5141609;28;20019;-69
2022/09/06 04:49:42;;;;;;;75.43;9.07;;;;;;;14.66;100.00;98539.66;5141361;28;20307;-69
2022/09/06 04:52:08;;;;;;;14.43;8.60;;;;;;;14.70;100.00;98546.53;5141530;28;20094;-69
2022/09/06 04:54:34;;;;;;;12.77;7.78;;;;;;;14.77;100.00;98550.69;5131170;28;20245;-69
